sensor_id;sensor_type;location;lat;lon;timestamp;pressure;altitude;pressure_sealevel;temperature;humidity
4133;BME280;2080;51.038;7.008;2023-02-19T00:01:40;76157.19;;;-142.53;100.00
4133;BME280;2080;51.038;7.008;2023-02-19T00:04:11;76161.09;;;-142.53;100.00
4133;BME280;2080;51.038;7.008;2023-02-19T00:06:37;76164.97;;;-142.53;100.00
4133;BME280;2080;51.038;7.008;2023-02-19T00:09:03;76159.13;;;-142.53;100.00
4133;BME280;2080;51.038;7.008;2023-02-19T00:11:31;76170.78;;;-142.53;100.00
4133;BME280;2080;51.038;7.008;2023-02-19T00:13:58;76161.09;;;-142.53;100.00
4133;BME280;2080;51.038;7.008;2023-02-19T00:16:30;76145.53;;;-142.53;100.00
4133;BME280;2080;51.038;7.008;2023-02-19T00:18:57;76149.44;;;-142.53;100.00
4133;BME280;2080;51.038;7.008;2023-02-19T00:21:24;76141.66;;;-142.53;100.00
4133;BME280;2080;51.038;7.008;2023-02-19T00:23:58;76145.53;;;-142.53;100.00
4133;BME280;2080;51.038;7.008;2023-02-19T00:26:25;76178.56;;;-142.53;100.00
4133;BME280;2080;51.038;7.008;2023-02-19T00:28:51;76182.44;;;-142.53;100.00
4133;BME280;2080;51.038;7.008;2023-02-19T00:33:52;76149.44;;;-142.53;100.00
4133;BME280;2080;51.038;7.008;2023-02-19T00:36:18;76149.44;;;-142.53;100.00
4133;BME280;2080;51.038;7.008;2023-02-19T00:38:46;76170.78;;;-142.53;100.00
4133;BME280;2080;51.038;7.008;2023-02-19T00:41:12;76155.25;;;-142.53;100.00
4133;BME280;2080;51.038;7.008;2023-02-19T00:43:51;76137.78;;;-142.53;100.00
4133;BME280;2080;51.038;7.008;2023-02-19T00:46:19;76139.72;;;-142.53;100.00
4133;BME280;2080;51.038;7.008;2023-02-19T00:48:44;76135.84;;;-142.53;100.00
4133;BME280;2080;51.038;7.008;2023-02-19T00:51:10;76137.78;;;-142.53;100.00
4133;BME280;2080;51.038;7.008;2023-02-19T00:53:36;76133.88;;;-142.53;100.00
4133;BME280;2080;51.038;7.008;2023-02-19T00:56:01;76118.34;;;-142.53;100.00
4133;BME280;2080;51.038;7.008;2023-02-19T00:58:29;76130.00;;;-142.53;100.00
4133;BME280;2080;51.038;7.008;2023-02-19T01:00:54;76126.13;;;-142.53;100.00
4133;BME280;2080;51.038;7.008;2023-02-19T01:03:22;76114.47;;;-142.53;100.00
4133;BME280;2080;51.038;7.008;2023-02-19T01:05:50;76118.34;;;-142.53;100.00
4133;BME280;2080;51.038;7.008;2023-02-19T01:08:16;76130.00;;;-142.53;100.00
4133;BME280;2080;51.038;7.008;2023-02-19T01:10:42;76126.13;;;-142.53;100.00
4133;BME280;2080;51.038;7.008;2023-02-19T01:13:07;76145.53;;;-142.53;100.00
4133;BME280;2080;51.038;7.008;2023-02-19T01:15:33;76126.13;;;-142.53;100.00
4133;BME280;2080;51.038;7.008;2023-02-19T01:17:58;76118.34;;;-142.53;100.00
4133;BME280;2080;51.038;7.008;2023-02-19T01:20:24;76131.94;;;-142.53;100.00
4133;BME280;2080;51.038;7.008;2023-02-19T01:22:53;76137.78;;;-142.53;100.00
4133;BME280;2080;51.038;7.008;2023-02-19T01:25:21;76126.13;;;-142.53;100.00
4133;BME280;2080;51.038;7.008;2023-02-19T01:27:48;76102.81;;;-142.53;100.00
4133;BME280;2080;51.038;7.008;2023-02-19T01:30:14;76120.28;;;-142.53;100.00
4133;BME280;2080;51.038;7.008;2023-02-19T01:32:41;76130.00;;;-142.53;100.00
4133;BME280;2080;51.038;7.008;2023-02-19T01:35:07;76145.53;;;-142.53;100.00
4133;BME280;2080;51.038;7.008;2023-02-19T01:37:35;76124.19;;;-142.53;100.00
4133;BME280;2080;51.038;7.008;2023-02-19T01:40:02;76133.88;;;-142.53;100.00
4133;BME280;2080;51.038;7.008;2023-02-19T01:42:30;76133.88;;;-142.53;100.00
4133;BME280;2080;51.038;7.008;2023-02-19T01:45:22;76130.00;;;-142.53;100.00
4133;BME280;2080;51.038;7.008;2023-02-19T01:47:53;76130.00;;;-142.53;100.00
4133;BME280;2080;51.038;7.008;2023-02-19T01:50:20;76116.41;;;-142.53;100.00
4133;BME280;2080;51.038;7.008;2023-02-19T01:52:46;76098.94;;;-142.53;100.00
4133;BME280;2080;51.038;7.008;2023-02-19T01:55:16;76102.81;;;-142.53;100.00
4133;BME280;2080;51.038;7.008;2023-02-19T01:57:45;76141.66;;;-142.53;100.00
4133;BME280;2080;51.038;7.008;2023-02-19T02:00:14;76118.34;;;-142.53;100.00
4133;BME280;2080;51.038;7.008;2023-02-19T02:02:41;76114.47;;;-142.53;100.00
4133;BME280;2080;51.038;7.008;2023-02-19T02:05:18;76116.41;;;-142.53;100.00
4133;BME280;2080;51.038;7.008;2023-02-19T02:07:48;76118.34;;;-142.53;100.00
4133;BME280;2080;51.038;7.008;2023-02-19T02:10:32;76114.47;;;-142.53;100.00
4133;BME280;2080;51.038;7.008;2023-02-19T02:12:58;76120.28;;;-142.53;100.00
4133;BME280;2080;51.038;7.008;2023-02-19T02:15:30;76133.88;;;-142.53;100.00
4133;BME280;2080;51.038;7.008;2023-02-19T02:18:09;76126.13;;;-142.53;100.00
4133;BME280;2080;51.038;7.008;2023-02-19T02:32:20;76095.03;;;-142.53;100.00
4133;BME280;2080;51.038;7.008;2023-02-19T02:34:53;76118.34;;;-142.53;100.00
4133;BME280;2080;51.038;7.008;2023-02-19T02:37:20;76126.13;;;-142.53;100.00
4133;BME280;2080;51.038;7.008;2023-02-19T02:39:53;76120.28;;;-142.53;100.00
4133;BME280;2080;51.038;7.008;2023-02-19T02:42:22;76114.47;;;-142.53;100.00
4133;BME280;2080;51.038;7.008;2023-02-19T02:44:57;76104.75;;;-142.53;100.00
4133;BME280;2080;51.038;7.008;2023-02-19T02:47:59;76124.19;;;-142.53;100.00
4133;BME280;2080;51.038;7.008;2023-02-19T02:50:34;76114.47;;;-142.53;100.00
4133;BME280;2080;51.038;7.008;2023-02-19T02:53:07;76133.88;;;-142.53;100.00
4133;BME280;2080;51.038;7.008;2023-02-19T02:55:53;76137.78;;;-142.53;100.00
4133;BME280;2080;51.038;7.008;2023-02-19T02:58:22;76126.13;;;-142.53;100.00
4133;BME280;2080;51.038;7.008;2023-02-19T03:00:55;76147.47;;;-142.53;100.00
4133;BME280;2080;51.038;7.008;2023-02-19T03:03:42;76126.13;;;-142.53;100.00
4133;BME280;2080;51.038;7.008;2023-02-19T03:06:11;76135.84;;;-142.53;100.00
4133;BME280;2080;51.038;7.008;2023-02-19T03:08:53;76141.66;;;-142.53;100.00
4133;BME280;2080;51.038;7.008;2023-02-19T03:11:21;76133.88;;;-142.53;100.00
4133;BME280;2080;51.038;7.008;2023-02-19T03:14:14;76106.69;;;-142.53;100.00
4133;BME280;2080;51.038;7.008;2023-02-19T03:17:10;76135.84;;;-142.53;100.00
4133;BME280;2080;51.038;7.008;2023-02-19T03:19:57;76130.00;;;-142.53;100.00
4133;BME280;2080;51.038;7.008;2023-02-19T03:22:28;76168.84;;;-142.53;100.00
4133;BME280;2080;51.038;7.008;2023-02-19T03:25:05;76145.53;;;-142.53;100.00
4133;BME280;2080;51.038;7.008;2023-02-19T03:27:51;76141.66;;;-142.53;100.00
4133;BME280;2080;51.038;7.008;2023-02-19T03:30:24;76145.53;;;-142.53;100.00
4133;BME280;2080;51.038;7.008;2023-02-19T03:33:11;76164.97;;;-142.53;100.00
4133;BME280;2080;51.038;7.008;2023-02-19T03:35:44;76168.84;;;-142.53;100.00
4133;BME280;2080;51.038;7.008;2023-02-19T03:43:43;76186.31;;;-142.53;100.00
4133;BME280;2080;51.038;7.008;2023-02-19T03:46:13;76196.03;;;-142.53;100.00
4133;BME280;2080;51.038;7.008;2023-02-19T03:48:53;76188.28;;;-142.53;100.00
4133;BME280;2080;51.038;7.008;2023-02-19T03:59:04;76211.56;;;-142.53;100.00
4133;BME280;2080;51.038;7.008;2023-02-19T04:04:16;76184.38;;;-142.53;100.00
4133;BME280;2080;51.038;7.008;2023-02-19T04:06:48;76207.69;;;-142.53;100.00
4133;BME280;2080;51.038;7.008;2023-02-19T04:09:21;76192.16;;;-142.53;100.00
4133;BME280;2080;51.038;7.008;2023-02-19T04:11:49;76213.53;;;-142.53;100.00
4133;BME280;2080;51.038;7.008;2023-02-19T04:14:25;76196.03;;;-142.53;100.00
4133;BME280;2080;51.038;7.008;2023-02-19T04:16:58;76199.94;;;-142.53;100.00
4133;BME280;2080;51.038;7.008;2023-02-19T04:19:26;76215.47;;;-142.53;100.00
4133;BME280;2080;51.038;7.008;2023-02-19T04:21:55;76223.22;;;-142.53;100.00
4133;BME280;2080;51.038;7.008;2023-02-19T04:24:25;76242.66;;;-142.53;100.00
4133;BME280;2080;51.038;7.008;2023-02-19T04:26:57;76223.22;;;-142.53;100.00
4133;BME280;2080;51.038;7.008;2023-02-19T04:29:23;76213.53;;;-142.53;100.00
4133;BME280;2080;51.038;7.008;2023-02-19T04:31:48;76215.47;;;-142.53;100.00
4133;BME280;2080;51.038;7.008;2023-02-19T04:34:16;76250.41;;;-142.53;100.00
4133;BME280;2080;51.038;7.008;2023-02-19T04:36:44;76250.41;;;-142.53;100.00
4133;BME280;2080;51.038;7.008;2023-02-19T04:39:09;76246.53;;;-142.53;100.00
4133;BME280;2080;51.038;7.008;2023-02-19T04:41:34;76250.41;;;-142.53;100.00
4133;BME280;2080;51.038;7.008;2023-02-19T04:44:02;76271.78;;;-142.53;100.00
4133;BME280;2080;51.038;7.008;2023-02-19T04:46:28;76273.72;;;-142.53;100.00
4133;BME280;2080;51.038;7.008;2023-02-19T04:48:53;76289.28;;;-142.53;100.00
4133;BME280;2080;51.038;7.008;2023-02-19T04:51:19;76289.28;;;-142.53;100.00
4133;BME280;2080;51.038;7.008;2023-02-19T04:53:47;76293.16;;;-142.53;100.00
4133;BME280;2080;51.038;7.008;2023-02-19T04:56:14;76258.19;;;-142.53;100.00
4133;BME280;2080;51.038;7.008;2023-02-19T04:58:43;76302.88;;;-142.53;100.00
4133;BME280;2080;51.038;7.008;2023-02-19T05:01:12;76281.50;;;-142.53;100.00
4133;BME280;2080;51.038;7.008;2023-02-19T05:03:38;76293.16;;;-142.53;100.00
4133;BME280;2080;51.038;7.008;2023-02-19T05:06:05;76306.75;;;-142.53;100.00
4133;BME280;2080;51.038;7.008;2023-02-19T05:08:33;76297.03;;;-142.53;100.00
4133;BME280;2080;51.038;7.008;2023-02-19T05:11:03;76312.56;;;-142.53;100.00
4133;BME280;2080;51.038;7.008;2023-02-19T05:13:29;76316.47;;;-142.53;100.00
4133;BME280;2080;51.038;7.008;2023-02-19T05:18:22;76324.22;;;-142.53;100.00
4133;BME280;2080;51.038;7.008;2023-02-19T05:20:51;76337.81;;;-142.53;100.00
4133;BME280;2080;51.038;7.008;2023-02-19T05:23:16;76347.53;;;-142.53;100.00
4133;BME280;2080;51.038;7.008;2023-02-19T05:25:42;76341.72;;;-142.53;100.00
4133;BME280;2080;51.038;7.008;2023-02-19T05:28:07;76351.41;;;-142.53;100.00
4133;BME280;2080;51.038;7.008;2023-02-19T05:30:54;76351.41;;;-142.53;100.00
4133;BME280;2080;51.038;7.008;2023-02-19T05:33:24;76382.50;;;-142.53;100.00
4133;BME280;2080;51.038;7.008;2023-02-19T05:35:52;76363.06;;;-142.53;100.00
4133;BME280;2080;51.038;7.008;2023-02-19T05:38:18;76407.75;;;-142.53;100.00
4133;BME280;2080;51.038;7.008;2023-02-19T05:40:44;76394.16;;;-142.53;100.00
4133;BME280;2080;51.038;7.008;2023-02-19T05:43:12;76374.72;;;-142.53;100.00
4133;BME280;2080;51.038;7.008;2023-02-19T05:45:38;76376.66;;;-142.53;100.00
4133;BME280;2080;51.038;7.008;2023-02-19T05:48:05;76398.03;;;-142.53;100.00
4133;BME280;2080;51.038;7.008;2023-02-19T05:50:32;76398.03;;;-142.53;100.00
4133;BME280;2080;51.038;7.008;2023-02-19T05:53:04;76413.56;;;-142.53;100.00
4133;BME280;2080;51.038;7.008;2023-02-19T05:55:34;76425.22;;;-142.53;100.00
4133;BME280;2080;51.038;7.008;2023-02-19T05:58:00;76444.66;;;-142.53;100.00
4133;BME280;2080;51.038;7.008;2023-02-19T06:00:26;76427.16;;;-142.53;100.00
4133;BME280;2080;51.038;7.008;2023-02-19T06:02:54;76421.34;;;-142.53;100.00
4133;BME280;2080;51.038;7.008;2023-02-19T06:05:19;76425.22;;;-142.53;100.00
4133;BME280;2080;51.038;7.008;2023-02-19T06:07:47;76419.41;;;-142.53;100.00
4133;BME280;2080;51.038;7.008;2023-02-19T06:10:14;76405.81;;;-142.53;100.00
4133;BME280;2080;51.038;7.008;2023-02-19T06:12:42;76399.97;;;-142.53;100.00
4133;BME280;2080;51.038;7.008;2023-02-19T06:15:10;76413.56;;;-142.53;100.00
4133;BME280;2080;51.038;7.008;2023-02-19T06:17:35;76425.22;;;-142.53;100.00
4133;BME280;2080;51.038;7.008;2023-02-19T06:20:00;76419.41;;;-142.53;100.00
4133;BME280;2080;51.038;7.008;2023-02-19T06:22:26;76425.22;;;-142.53;100.00
4133;BME280;2080;51.038;7.008;2023-02-19T06:24:54;76417.47;;;-142.53;100.00
4133;BME280;2080;51.038;7.008;2023-02-19T06:27:22;76433.00;;;-142.53;100.00
4133;BME280;2080;51.038;7.008;2023-02-19T06:29:47;76452.41;;;-142.53;100.00
4133;BME280;2080;51.038;7.008;2023-02-19T06:32:18;76452.41;;;-142.53;100.00
4133;BME280;2080;51.038;7.008;2023-02-19T06:34:43;76464.06;;;-142.53;100.00
4133;BME280;2080;51.038;7.008;2023-02-19T06:37:08;76475.72;;;-142.53;100.00
4133;BME280;2080;51.038;7.008;2023-02-19T06:39:34;76460.19;;;-142.53;100.00
4133;BME280;2080;51.038;7.008;2023-02-19T06:42:01;76448.53;;;-142.53;100.00
4133;BME280;2080;51.038;7.008;2023-02-19T06:44:27;76460.19;;;-142.53;100.00
4133;BME280;2080;51.038;7.008;2023-02-19T06:46:55;76446.59;;;-142.53;100.00
4133;BME280;2080;51.038;7.008;2023-02-19T06:49:24;76448.53;;;-142.53;100.00
4133;BME280;2080;51.038;7.008;2023-02-19T06:51:49;76444.66;;;-142.53;100.00
4133;BME280;2080;51.038;7.008;2023-02-19T06:54:19;76464.06;;;-142.53;100.00
4133;BME280;2080;51.038;7.008;2023-02-19T06:56:45;76464.06;;;-142.53;100.00
4133;BME280;2080;51.038;7.008;2023-02-19T06:59:14;76467.97;;;-142.53;100.00
4133;BME280;2080;51.038;7.008;2023-02-19T07:01:44;76466.03;;;-142.53;100.00
4133;BME280;2080;51.038;7.008;2023-02-19T07:04:12;76479.63;;;-142.53;100.00
4133;BME280;2080;51.038;7.008;2023-02-19T07:06:40;76475.72;;;-142.53;100.00
4133;BME280;2080;51.038;7.008;2023-02-19T07:09:06;76471.84;;;-142.53;100.00
4133;BME280;2080;51.038;7.008;2023-02-19T07:11:34;76479.63;;;-142.53;100.00
4133;BME280;2080;51.038;7.008;2023-02-19T07:14:04;76475.72;;;-142.53;100.00
4133;BME280;2080;51.038;7.008;2023-02-19T07:16:32;76460.19;;;-142.53;100.00
4133;BME280;2080;51.038;7.008;2023-02-19T07:19:00;76467.97;;;-142.53;100.00
4133;BME280;2080;51.038;7.008;2023-02-19T07:21:30;76466.03;;;-142.53;100.00
4133;BME280;2080;51.038;7.008;2023-02-19T07:23:56;76500.97;;;-142.53;100.00
4133;BME280;2080;51.038;7.008;2023-02-19T07:26:24;76469.91;;;-142.53;100.00
4133;BME280;2080;51.038;7.008;2023-02-19T07:28:50;76475.72;;;-142.53;100.00
4133;BME280;2080;51.038;7.008;2023-02-19T07:31:17;76475.72;;;-142.53;100.00
4133;BME280;2080;51.038;7.008;2023-02-19T07:33:43;76479.63;;;-142.53;100.00
4133;BME280;2080;51.038;7.008;2023-02-19T07:36:09;76479.63;;;-142.53;100.00
4133;BME280;2080;51.038;7.008;2023-02-19T07:38:37;76467.97;;;-142.53;100.00
4133;BME280;2080;51.038;7.008;2023-02-19T07:41:04;76491.28;;;-142.53;100.00
4133;BME280;2080;51.038;7.008;2023-02-19T07:43:34;76489.31;;;-142.53;100.00
4133;BME280;2080;51.038;7.008;2023-02-19T07:46:10;76460.19;;;-142.53;100.00
4133;BME280;2080;51.038;7.008;2023-02-19T07:48:41;76483.50;;;-142.53;100.00
4133;BME280;2080;51.038;7.008;2023-02-19T07:51:11;76466.03;;;-142.53;100.00
4133;BME280;2080;51.038;7.008;2023-02-19T07:53:36;76460.19;;;-142.53;100.00
4133;BME280;2080;51.038;7.008;2023-02-19T07:56:04;76464.06;;;-142.53;100.00
4133;BME280;2080;51.038;7.008;2023-02-19T07:58:30;76456.31;;;-142.53;100.00
4133;BME280;2080;51.038;7.008;2023-02-19T08:00:56;76487.38;;;-142.53;100.00
4133;BME280;2080;51.038;7.008;2023-02-19T08:03:22;76471.84;;;-142.53;100.00
4133;BME280;2080;51.038;7.008;2023-02-19T08:05:47;76500.97;;;-142.53;100.00
4133;BME280;2080;51.038;7.008;2023-02-19T08:08:15;76502.91;;;-142.53;100.00
4133;BME280;2080;51.038;7.008;2023-02-19T08:10:41;76508.75;;;-142.53;100.00
4133;BME280;2080;51.038;7.008;2023-02-19T08:13:27;76526.22;;;-142.53;100.00
4133;BME280;2080;51.038;7.008;2023-02-19T08:18:27;76518.47;;;-142.53;100.00
4133;BME280;2080;51.038;7.008;2023-02-19T08:20:56;76561.19;;;-142.53;100.00
4133;BME280;2080;51.038;7.008;2023-02-19T08:23:26;76537.88;;;-142.53;100.00
4133;BME280;2080;51.038;7.008;2023-02-19T08:25:57;76535.94;;;-142.53;100.00
4133;BME280;2080;51.038;7.008;2023-02-19T08:28:23;76518.47;;;-142.53;100.00
4133;BME280;2080;51.038;7.008;2023-02-19T08:30:49;76520.41;;;-142.53;100.00
4133;BME280;2080;51.038;7.008;2023-02-19T08:33:16;76502.91;;;-142.53;100.00
4133;BME280;2080;51.038;7.008;2023-02-19T08:35:42;76491.28;;;-142.53;100.00
4133;BME280;2080;51.038;7.008;2023-02-19T08:38:11;76487.38;;;-142.53;100.00
4133;BME280;2080;51.038;7.008;2023-02-19T08:40:42;76481.56;;;-142.53;100.00
4133;BME280;2080;51.038;7.008;2023-02-19T08:43:10;76471.84;;;-142.53;100.00
4133;BME280;2080;51.038;7.008;2023-02-19T08:45:37;76448.53;;;-142.53;100.00
4133;BME280;2080;51.038;7.008;2023-02-19T08:48:07;76440.78;;;-142.53;100.00
4133;BME280;2080;51.038;7.008;2023-02-19T08:50:33;76448.53;;;-142.53;100.00
4133;BME280;2080;51.038;7.008;2023-02-19T08:53:00;76446.59;;;-142.53;100.00
4133;BME280;2080;51.038;7.008;2023-02-19T08:55:26;76440.78;;;-142.53;100.00
4133;BME280;2080;51.038;7.008;2023-02-19T08:57:51;76460.19;;;-142.53;100.00
4133;BME280;2080;51.038;7.008;2023-02-19T09:00:19;76444.66;;;-142.53;100.00
4133;BME280;2080;51.038;7.008;2023-02-19T09:02:49;76469.91;;;-142.53;100.00
4133;BME280;2080;51.038;7.008;2023-02-19T09:05:17;76469.91;;;-142.53;100.00
4133;BME280;2080;51.038;7.008;2023-02-19T09:07:42;76460.19;;;-142.53;100.00
4133;BME280;2080;51.038;7.008;2023-02-19T09:10:14;76448.53;;;-142.53;100.00
4133;BME280;2080;51.038;7.008;2023-02-19T09:12:40;76429.13;;;-142.53;100.00
4133;BME280;2080;51.038;7.008;2023-02-19T09:15:06;76434.94;;;-142.53;100.00
4133;BME280;2080;51.038;7.008;2023-02-19T09:17:34;76413.56;;;-142.53;100.00
4133;BME280;2080;51.038;7.008;2023-02-19T09:19:59;76446.59;;;-142.53;100.00
4133;BME280;2080;51.038;7.008;2023-02-19T09:22:27;76458.25;;;-142.53;100.00
4133;BME280;2080;51.038;7.008;2023-02-19T09:24:53;76475.72;;;-142.53;100.00
4133;BME280;2080;51.038;7.008;2023-02-19T09:27:19;76471.84;;;-142.53;100.00
4133;BME280;2080;51.038;7.008;2023-02-19T09:29:47;76452.41;;;-142.53;100.00
4133;BME280;2080;51.038;7.008;2023-02-19T09:32:12;76444.66;;;-142.53;100.00
4133;BME280;2080;51.038;7.008;2023-02-19T09:34:38;76452.41;;;-142.53;100.00
4133;BME280;2080;51.038;7.008;2023-02-19T09:37:04;76460.19;;;-142.53;100.00
4133;BME280;2080;51.038;7.008;2023-02-19T09:39:35;76481.56;;;-142.53;100.00
4133;BME280;2080;51.038;7.008;2023-02-19T09:42:03;76481.56;;;-142.53;100.00
4133;BME280;2080;51.038;7.008;2023-02-19T09:44:41;76483.50;;;-142.53;100.00
4133;BME280;2080;51.038;7.008;2023-02-19T09:47:38;76495.16;;;-142.53;100.00
4133;BME280;2080;51.038;7.008;2023-02-19T09:50:08;76491.28;;;-142.53;100.00
4133;BME280;2080;51.038;7.008;2023-02-19T09:52:55;76537.88;;;-142.53;100.00
4133;BME280;2080;51.038;7.008;2023-02-19T09:55:30;76549.53;;;-142.53;100.00
4133;BME280;2080;51.038;7.008;2023-02-19T09:57:57;76545.66;;;-142.53;100.00
4133;BME280;2080;51.038;7.008;2023-02-19T10:00:25;76551.47;;;-142.53;100.00
4133;BME280;2080;51.038;7.008;2023-02-19T10:02:59;76557.31;;;-142.53;100.00
4133;BME280;2080;51.038;7.008;2023-02-19T10:05:26;76557.31;;;-142.53;100.00
4133;BME280;2080;51.038;7.008;2023-02-19T10:07:56;76561.19;;;-142.53;100.00
4133;BME280;2080;51.038;7.008;2023-02-19T10:10:27;76545.66;;;-142.53;100.00
4133;BME280;2080;51.038;7.008;2023-02-19T10:12:55;76514.56;;;-142.53;100.00
4133;BME280;2080;51.038;7.008;2023-02-19T10:17:54;76499.03;;;-142.53;100.00
4133;BME280;2080;51.038;7.008;2023-02-19T10:20:21;76549.53;;;-142.53;100.00
4133;BME280;2080;51.038;7.008;2023-02-19T10:22:52;76543.72;;;-142.53;100.00
4133;BME280;2080;51.038;7.008;2023-02-19T10:25:21;76568.97;;;-142.53;100.00
4133;BME280;2080;51.038;7.008;2023-02-19T10:27:46;76603.94;;;-142.53;100.00
4133;BME280;2080;51.038;7.008;2023-02-19T10:30:19;76600.03;;;-142.53;100.00
4133;BME280;2080;51.038;7.008;2023-02-19T10:36:05;76502.91;;;-142.53;100.00
4133;BME280;2080;51.038;7.008;2023-02-19T10:38:36;76502.91;;;-142.53;100.00
4133;BME280;2080;51.038;7.008;2023-02-19T10:41:05;76487.38;;;-142.53;100.00
4133;BME280;2080;51.038;7.008;2023-02-19T10:43:35;76506.81;;;-142.53;100.00
4133;BME280;2080;51.038;7.008;2023-02-19T10:46:04;76497.09;;;-142.53;100.00
4133;BME280;2080;51.038;7.008;2023-02-19T10:48:36;76526.22;;;-142.53;100.00
4133;BME280;2080;51.038;7.008;2023-02-19T10:51:07;76594.22;;;-142.53;100.00
4133;BME280;2080;51.038;7.008;2023-02-19T10:54:02;76576.72;;;-142.53;100.00
4133;BME280;2080;51.038;7.008;2023-02-19T10:56:28;76586.44;;;-142.53;100.00
4133;BME280;2080;51.038;7.008;2023-02-19T11:04:20;76561.19;;;-142.53;100.00
4133;BME280;2080;51.038;7.008;2023-02-19T11:06:49;76549.53;;;-142.53;100.00
4133;BME280;2080;51.038;7.008;2023-02-19T11:09:34;76502.91;;;-142.53;100.00
4133;BME280;2080;51.038;7.008;2023-02-19T11:12:01;76483.50;;;-142.53;100.00
4133;BME280;2080;51.038;7.008;2023-02-19T11:14:30;76467.97;;;-142.53;100.00
4133;BME280;2080;51.038;7.008;2023-02-19T11:16:59;76471.84;;;-142.53;100.00
4133;BME280;2080;51.038;7.008;2023-02-19T11:19:38;76444.66;;;-142.53;100.00
4133;BME280;2080;51.038;7.008;2023-02-19T11:22:26;76421.34;;;-142.53;100.00
4133;BME280;2080;51.038;7.008;2023-02-19T11:24:53;76394.16;;;-142.53;98.21
4133;BME280;2080;51.038;7.008;2023-02-19T11:27:23;76415.53;;;-142.53;96.99
4133;BME280;2080;51.038;7.008;2023-02-19T11:29:51;76419.41;;;-142.53;95.92
4133;BME280;2080;51.038;7.008;2023-02-19T11:34:48;76390.28;;;-142.53;98.25
4133;BME280;2080;51.038;7.008;2023-02-19T11:37:20;76390.28;;;-142.53;96.85
4133;BME280;2080;51.038;7.008;2023-02-19T11:39:47;76436.88;;;-142.53;99.44
4133;BME280;2080;51.038;7.008;2023-02-19T11:42:38;76409.69;;;-142.53;97.48
4133;BME280;2080;51.038;7.008;2023-02-19T11:51:08;76343.66;;;-142.53;93.13
4133;BME280;2080;51.038;7.008;2023-02-19T11:56:14;76409.69;;;-142.53;94.64
4133;BME280;2080;51.038;7.008;2023-02-19T11:58:46;76425.22;;;-142.53;96.30
4133;BME280;2080;51.038;7.008;2023-02-19T12:04:10;76413.56;;;-142.53;96.27
4133;BME280;2080;51.038;7.008;2023-02-19T12:22:43;76363.06;;;-142.53;91.88
4133;BME280;2080;51.038;7.008;2023-02-19T12:30:50;76370.84;;;-142.53;89.49
4133;BME280;2080;51.038;7.008;2023-02-19T12:43:44;76413.56;;;-142.53;89.34
4133;BME280;2080;51.038;7.008;2023-02-19T12:46:19;76452.41;;;-142.53;89.61
4133;BME280;2080;51.038;7.008;2023-02-19T12:51:38;76456.31;;;-142.53;93.03
4133;BME280;2080;51.038;7.008;2023-02-19T12:54:57;76456.31;;;-142.53;93.11
4133;BME280;2080;51.038;7.008;2023-02-19T12:59:47;76436.88;;;-142.53;93.20
4133;BME280;2080;51.038;7.008;2023-02-19T13:02:32;76456.31;;;-142.53;93.57
4133;BME280;2080;51.038;7.008;2023-02-19T13:05:05;76467.97;;;-142.53;92.92
4133;BME280;2080;51.038;7.008;2023-02-19T13:07:44;76438.81;;;-142.53;92.17
4133;BME280;2080;51.038;7.008;2023-02-19T13:10:26;76442.72;;;-142.53;93.38
4133;BME280;2080;51.038;7.008;2023-02-19T13:12:57;76456.31;;;-142.53;90.98
4133;BME280;2080;51.038;7.008;2023-02-19T13:15:41;76464.06;;;-142.53;91.86
4133;BME280;2080;51.038;7.008;2023-02-19T13:18:23;76479.63;;;-142.53;91.47
4133;BME280;2080;51.038;7.008;2023-02-19T13:20:50;76448.53;;;-142.53;89.92
4133;BME280;2080;51.038;7.008;2023-02-19T13:23:29;76477.66;;;-142.53;91.39
4133;BME280;2080;51.038;7.008;2023-02-19T13:37:40;76335.88;;;-142.53;87.18
4133;BME280;2080;51.038;7.008;2023-02-19T13:42:57;76330.06;;;-142.53;85.25
4133;BME280;2080;51.038;7.008;2023-02-19T13:45:41;76332.00;;;-142.53;88.06
4133;BME280;2080;51.038;7.008;2023-02-19T13:50:43;76433.00;;;-142.53;87.65
4133;BME280;2080;51.038;7.008;2023-02-19T14:14:46;76584.50;;;-142.53;98.22
4133;BME280;2080;51.038;7.008;2023-02-19T14:17:47;76615.59;;;-142.53;100.00
4133;BME280;2080;51.038;7.008;2023-02-19T14:28:10;76648.59;;;-142.53;100.00
4133;BME280;2080;51.038;7.008;2023-02-19T14:30:59;76677.75;;;-142.53;100.00
4133;BME280;2080;51.038;7.008;2023-02-19T14:33:33;76716.59;;;-142.53;100.00
4133;BME280;2080;51.038;7.008;2023-02-19T14:36:15;76712.72;;;-142.53;100.00
4133;BME280;2080;51.038;7.008;2023-02-19T14:38:49;76714.66;;;-142.53;100.00
4133;BME280;2080;51.038;7.008;2023-02-19T14:41:16;76737.97;;;-142.53;100.00
4133;BME280;2080;51.038;7.008;2023-02-19T14:43:45;76732.13;;;-142.53;100.00
4133;BME280;2080;51.038;7.008;2023-02-19T14:48:52;76767.09;;;-142.53;100.00
4133;BME280;2080;51.038;7.008;2023-02-19T14:51:38;76743.78;;;-142.53;100.00
4133;BME280;2080;51.038;7.008;2023-02-19T14:54:13;76749.63;;;-142.53;100.00
4133;BME280;2080;51.038;7.008;2023-02-19T14:56:49;76741.84;;;-142.53;100.00
4133;BME280;2080;51.038;7.008;2023-02-19T15:01:52;76712.72;;;-142.53;100.00
4133;BME280;2080;51.038;7.008;2023-02-19T15:04:23;76703.00;;;-142.53;100.00
4133;BME280;2080;51.038;7.008;2023-02-19T15:06:49;76685.50;;;-142.53;100.00
4133;BME280;2080;51.038;7.008;2023-02-19T15:09:18;76658.31;;;-142.53;100.00
4133;BME280;2080;51.038;7.008;2023-02-19T15:11:47;76681.63;;;-142.53;100.00
4133;BME280;2080;51.038;7.008;2023-02-19T15:14:20;76635.00;;;-142.53;100.00
4133;BME280;2080;51.038;7.008;2023-02-19T15:16:50;76617.53;;;-142.53;100.00
4133;BME280;2080;51.038;7.008;2023-02-19T15:19:22;76654.44;;;-142.53;100.00
4133;BME280;2080;51.038;7.008;2023-02-19T15:21:48;76635.00;;;-142.53;100.00
4133;BME280;2080;51.038;7.008;2023-02-19T15:24:17;76635.00;;;-142.53;100.00
4133;BME280;2080;51.038;7.008;2023-02-19T15:26:47;76619.47;;;-142.53;100.00
4133;BME280;2080;51.038;7.008;2023-02-19T15:29:22;76642.78;;;-142.53;100.00
4133;BME280;2080;51.038;7.008;2023-02-19T15:31:52;76635.00;;;-142.53;100.00
4133;BME280;2080;51.038;7.008;2023-02-19T15:34:29;76642.78;;;-142.53;100.00
4133;BME280;2080;51.038;7.008;2023-02-19T15:37:05;76636.94;;;-142.53;100.00